Time;durP1;ratioP1;P1;durP2;ratioP2;P2;SDS_P1;SDS_P2;PMS_P1;PMS_P2;Temp;Humidity;BMP_temperature;BMP_pressure;BME280_temperature;BME280_humidity;BME280_pressure;Samples;Min_cycle;Max_cycle;Signal;HPM_P1;HPM_P2
2023/10/06 00:00:50;;;;;;;8.48;4.65;;;13.30;99.90;;;;;;5033614;28;20021;-84
2023/10/06 00:03:16;;;;;;;5.05;4.50;;;13.30;99.90;;;;;;5033976;28;20053;-85
2023/10/06 00:05:45;;;;;;;8.10;5.55;;;13.30;99.90;;;;;;5032635;28;20535;-85
2023/10/06 00:08:11;;;;;;;5.63;4.80;;;13.20;99.90;;;;;;5034177;28;20448;-85
2023/10/06 00:10:46;;;;;;;7.60;5.65;;;13.20;99.90;;;;;;5030623;28;20032;-85
2023/10/06 00:13:13;;;;;;;9.80;5.87;;;13.30;99.90;;;;;;5032790;28;20025;-88
2023/10/06 00:15:38;;;;;;;8.90;5.97;;;13.20;99.90;;;;;;5033650;28;20166;-85
2023/10/06 00:18:08;;;;;;;8.98;5.82;;;13.20;99.90;;;;;;5050585;28;20478;-85
2023/10/06 00:20:49;;;;;;;10.55;5.35;;;13.20;99.90;;;;;;5032413;28;20128;-86
2023/10/06 00:23:22;;;;;;;10.35;6.03;;;13.20;99.90;;;;;;5050572;28;20466;-87
2023/10/06 00:25:52;;;;;;;6.78;5.15;;;13.20;99.90;;;;;;5043817;28;20013;-84
2023/10/06 00:28:19;;;;;;;8.55;5.90;;;13.20;99.90;;;;;;5043197;28;20103;-85
2023/10/06 00:30:47;;;;;;;8.30;5.32;;;13.20;99.90;;;;;;5047465;28;20075;-87
2023/10/06 00:33:15;;;;;;;9.32;6.40;;;13.20;99.90;;;;;;5046054;28;20439;-88
2023/10/06 00:35:44;;;;;;;11.20;6.22;;;13.20;99.90;;;;;;5040898;28;20476;-85
2023/10/06 00:38:13;;;;;;;11.52;5.40;;;13.20;99.90;;;;;;5029656;28;20064;-85
2023/10/06 00:40:46;;;;;;;9.50;5.85;;;13.20;99.90;;;;;;5047969;28;20032;-85
2023/10/06 00:43:16;;;;;;;11.60;7.25;;;13.20;99.90;;;;;;5025609;28;20028;-86
2023/10/06 00:45:43;;;;;;;8.63;5.82;;;13.20;99.90;;;;;;5028953;28;20025;-87
2023/10/06 00:48:14;;;;;;;10.88;5.63;;;13.20;99.90;;;;;;5027494;28;20026;-85
2023/10/06 00:50:42;;;;;;;9.30;6.20;;;13.20;99.90;;;;;;5050372;28;20031;-86
2023/10/06 00:53:12;;;;;;;10.02;6.78;;;13.20;99.90;;;;;;5031413;28;20029;-86
2023/10/06 00:55:39;;;;;;;10.65;6.97;;;13.20;99.90;;;;;;5047750;28;20084;-86
2023/10/06 00:58:09;;;;;;;8.15;6.78;;;13.20;99.90;;;;;;5031602;28;20481;-86
2023/10/06 01:00:37;;;;;;;10.07;6.78;;;13.20;99.90;;;;;;5030728;28;20021;-85
2023/10/06 01:03:09;;;;;;;13.82;7.20;;;13.10;99.90;;;;;;5032758;28;20257;-85
2023/10/06 01:05:36;;;;;;;8.52;7.28;;;13.10;99.90;;;;;;5031315;28;20067;-86
2023/10/06 01:08:05;;;;;;;13.25;7.95;;;13.10;99.90;;;;;;5031901;28;20033;-86
2023/10/06 01:10:34;;;;;;;9.48;6.80;;;13.10;99.90;;;;;;5033180;28;20029;-85
2023/10/06 01:13:11;;;;;;;11.32;6.35;;;13.10;99.90;;;;;;5033111;28;20021;-84
2023/10/06 01:15:44;;;;;;;10.75;7.70;;;13.10;99.90;;;;;;5026781;28;20040;-85
2023/10/06 01:18:19;;;;;;;9.93;7.80;;;13.10;99.90;;;;;;5031039;28;20056;-87
2023/10/06 01:20:45;;;;;;;13.10;7.97;;;13.00;99.90;;;;;;5048961;28;20025;-85
2023/10/06 01:23:17;;;;;;;10.15;7.22;;;13.00;99.90;;;;;;5049187;28;20017;-85
2023/10/06 01:25:43;;;;;;;13.27;6.55;;;13.00;99.90;;;;;;5029390;28;20078;-85
2023/10/06 01:28:12;;;;;;;11.88;7.30;;;13.00;99.90;;;;;;5028446;28;20493;-83
2023/10/06 01:30:38;;;;;;;15.98;8.25;;;13.00;99.90;;;;;;5024449;28;20040;-87
2023/10/06 01:33:05;;;;;;;13.43;7.90;;;13.00;99.90;;;;;;5030113;28;20501;-85
2023/10/06 01:35:33;;;;;;;12.95;8.35;;;13.00;99.90;;;;;;5050058;28;20044;-86
2023/10/06 01:38:00;;;;;;;12.45;7.63;;;13.00;99.90;;;;;;5031512;28;20028;-86
2023/10/06 01:42:53;;;;;;;13.43;8.65;;;13.00;99.90;;;;;;5049363;28;20102;-87
2023/10/06 01:45:22;;;;;;;11.27;8.25;;;13.00;99.90;;;;;;5032465;28;20488;-85
2023/10/06 01:48:22;;;;;;;15.27;8.32;;;13.00;99.90;;;;;;5047164;28;20032;-88
2023/10/06 01:50:41;;;;;;;12.32;8.30;;;13.00;99.90;;;;;;5047497;28;20096;-85
2023/10/06 01:53:10;;;;;;;12.38;8.82;;;13.00;99.90;;;;;;5030273;28;20033;-87
2023/10/06 01:55:39;;;;;;;13.95;9.43;;;13.00;99.90;;;;;;5040240;28;20032;-90
2023/10/06 01:58:07;;;;;;;12.73;8.73;;;13.00;99.90;;;;;;5068716;28;20091;-87
2023/10/06 02:00:34;;;;;;;12.60;8.43;;;13.00;99.90;;;;;;5047708;28;20017;-85
2023/10/06 02:03:03;;;;;;;14.10;9.43;;;13.00;99.90;;;;;;5027600;28;20027;-85
2023/10/06 02:05:29;;;;;;;12.93;8.07;;;13.00;99.90;;;;;;5030727;28;20325;-86
2023/10/06 02:08:00;;;;;;;15.73;9.50;;;13.00;99.90;;;;;;5029379;28;20113;-84
2023/10/06 02:10:28;;;;;;;12.23;8.55;;;13.00;99.90;;;;;;5045583;28;20566;-85
2023/10/06 02:12:55;;;;;;;14.02;9.65;;;13.00;99.90;;;;;;5035291;28;20059;-86
2023/10/06 02:15:20;;;;;;;12.43;9.07;;;13.00;99.90;;;;;;5030235;28;20025;-85
2023/10/06 02:17:47;;;;;;;15.20;9.55;;;13.00;99.90;;;;;;5030681;28;20082;-85
2023/10/06 02:20:30;;;;;;;10.32;8.02;;;13.00;99.90;;;;;;5027219;28;20029;-84
2023/10/06 02:23:00;;;;;;;12.60;8.57;;;13.00;99.90;;;;;;5042612;28;20033;-85
2023/10/06 02:25:26;;;;;;;13.50;9.05;;;13.00;99.90;;;;;;5047397;28;20076;-86
2023/10/06 02:27:52;;;;;;;21.27;9.70;;;13.00;99.90;;;;;;5031654;28;20163;-85
2023/10/06 02:30:24;;;;;;;14.23;9.38;;;13.00;99.90;;;;;;5030800;28;20174;-85
2023/10/06 02:32:53;;;;;;;14.43;8.98;;;13.00;99.90;;;;;;5045573;28;20100;-83
2023/10/06 02:35:18;;;;;;;15.85;8.52;;;13.00;99.90;;;;;;5031129;28;20025;-85
2023/10/06 02:37:45;;;;;;;12.20;8.45;;;13.00;99.90;;;;;;5031410;28;20186;-86
2023/10/06 02:40:11;;;;;;;14.38;9.55;;;13.00;99.90;;;;;;5031231;28;20024;-86
2023/10/06 02:42:51;;;;;;;11.90;9.30;;;13.00;99.90;;;;;;5028500;28;20013;-86
2023/10/06 02:45:20;;;;;;;15.00;8.73;;;13.00;99.90;;;;;;5030995;28;20024;-85
2023/10/06 02:47:47;;;;;;;14.60;10.25;;;13.00;99.90;;;;;;5049706;28;20017;-85
2023/10/06 02:50:20;;;;;;;13.10;8.88;;;13.00;99.90;;;;;;5031343;28;20032;-84
2023/10/06 02:52:53;;;;;;;15.30;9.07;;;13.00;99.90;;;;;;5029847;28;20095;-86
2023/10/06 02:55:19;;;;;;;10.48;8.98;;;13.00;99.90;;;;;;5049594;28;20025;-85
2023/10/06 02:57:51;;;;;;;13.73;8.98;;;12.90;99.90;;;;;;5048863;28;20540;-84
2023/10/06 03:03:12;;;;;;;11.65;8.25;;;12.90;99.90;;;;;;5049217;28;20018;-85
2023/10/06 03:05:39;;;;;;;14.48;7.75;;;12.90;99.90;;;;;;5030396;28;20025;-83
2023/10/06 03:08:11;;;;;;;12.27;9.13;;;12.90;99.90;;;;;;5049330;28;20040;-84
2023/10/06 03:10:44;;;;;;;10.98;8.15;;;12.90;99.90;;;;;;5029140;28;20032;-85
2023/10/06 03:13:13;;;;;;;13.02;8.23;;;12.90;99.90;;;;;;5031482;28;20059;-85
2023/10/06 03:15:45;;;;;;;15.80;7.95;;;12.90;99.90;;;;;;5028557;28;20033;-86
2023/10/06 03:18:12;;;;;;;11.20;8.73;;;12.90;99.90;;;;;;5031483;28;20036;-86
2023/10/06 03:20:46;;;;;;;14.27;8.05;;;12.90;99.90;;;;;;5030932;28;20024;-85
2023/10/06 03:23:26;;;;;;;13.82;8.10;;;12.90;99.90;;;;;;5028674;28;20021;-87
2023/10/06 03:25:56;;;;;;;12.65;7.47;;;12.90;99.90;;;;;;5030827;28;20025;-86
2023/10/06 03:33:47;;;;;;;12.70;8.50;;;12.80;99.90;;;;;;5053052;28;20029;-87
2023/10/06 03:36:16;;;;;;;11.90;8.40;;;12.80;99.90;;;;;;5052953;28;20025;-85
2023/10/06 03:38:55;;;;;;;12.18;7.65;;;12.80;99.90;;;;;;5031545;28;20497;-87
2023/10/06 03:41:32;;;;;;;11.35;7.30;;;12.80;99.90;;;;;;5032384;28;20033;-86
2023/10/06 03:44:00;;;;;;;15.05;8.43;;;12.80;99.90;;;;;;5045755;28;20022;-86
2023/10/06 03:46:36;;;;;;;14.27;7.63;;;12.80;99.90;;;;;;5033785;28;20028;-86
2023/10/06 03:49:05;;;;;;;12.95;8.40;;;12.90;99.90;;;;;;5052991;28;20063;-89
2023/10/06 03:51:40;;;;;;;9.18;7.35;;;12.90;99.90;;;;;;5053050;28;20080;-87
2023/10/06 03:54:07;;;;;;;15.13;8.73;;;12.80;99.90;;;;;;5057725;28;20029;-85
2023/10/06 03:56:33;;;;;;;11.88;8.48;;;12.80;99.90;;;;;;5037319;28;20382;-85
2023/10/06 03:59:02;;;;;;;14.90;8.43;;;12.90;99.90;;;;;;5033883;28;20120;-87
2023/10/06 04:01:31;;;;;;;14.00;9.02;;;12.80;99.90;;;;;;5050085;28;20021;-85
2023/10/06 04:04:00;;;;;;;12.02;8.57;;;12.80;99.90;;;;;;5052782;28;20032;-87
2023/10/06 04:06:27;;;;;;;12.98;8.90;;;12.80;99.90;;;;;;5034555;28;20036;-85
2023/10/06 04:08:53;;;;;;;14.32;9.50;;;12.80;99.90;;;;;;5033266;28;20043;-86
2023/10/06 04:11:19;;;;;;;12.23;7.80;;;12.80;99.90;;;;;;5034028;28;20025;-85
2023/10/06 04:13:45;;;;;;;11.43;8.43;;;12.90;99.90;;;;;;5031171;28;20029;-85
2023/10/06 04:16:14;;;;;;;18.05;9.77;;;12.80;99.90;;;;;;5036702;28;20025;-86
2023/10/06 04:18:40;;;;;;;10.82;8.52;;;12.90;99.90;;;;;;5036532;28;20072;-87
2023/10/06 04:21:11;;;;;;;19.35;10.07;;;12.80;99.90;;;;;;5055584;28;20027;-86
2023/10/06 04:23:41;;;;;;;16.17;9.45;;;12.80;99.90;;;;;;5034288;28;20058;-85
2023/10/06 04:26:11;;;;;;;12.38;8.73;;;12.80;99.90;;;;;;5032151;28;20040;-84
2023/10/06 04:28:37;;;;;;;13.68;9.18;;;12.80;99.90;;;;;;5034391;28;20025;-86
2023/10/06 04:31:05;;;;;;;14.15;9.73;;;12.80;99.90;;;;;;5034866;28;20076;-85
2023/10/06 04:33:31;;;;;;;15.05;10.32;;;12.80;99.90;;;;;;5048307;28;20024;-85
2023/10/06 04:36:07;;;;;;;15.00;9.55;;;12.80;99.90;;;;;;5037296;28;20120;-85
2023/10/06 04:38:40;;;;;;;15.27;10.45;;;12.80;99.90;;;;;;5056087;28;20025;-87
2023/10/06 04:41:10;;;;;;;12.10;9.60;;;12.80;99.90;;;;;;5040654;28;20546;-85
2023/10/06 04:43:36;;;;;;;13.77;10.32;;;12.80;99.90;;;;;;5035062;28;20032;-85
2023/10/06 04:46:05;;;;;;;14.07;9.60;;;12.80;99.90;;;;;;5053922;28;20021;-84
2023/10/06 04:48:32;;;;;;;14.00;10.27;;;12.80;99.90;;;;;;5035624;28;20036;-85
2023/10/06 04:50:58;;;;;;;12.80;10.00;;;12.80;99.90;;;;;;5053076;28;20039;-85
2023/10/06 04:53:23;;;;;;;16.50;9.82;;;12.80;99.90;;;;;;5055151;28;20029;-86
2023/10/06 04:55:51;;;;;;;13.55;10.52;;;12.80;99.90;;;;;;5051629;28;20032;-85
2023/10/06 04:58:18;;;;;;;13.45;10.18;;;12.80;99.90;;;;;;5050357;28;20021;-85
2023/10/06 05:00:52;;;;;;;14.68;10.80;;;12.80;99.90;;;;;;5034190;28;20029;-85
2023/10/06 05:03:18;;;;;;;18.45;10.88;;;12.90;99.90;;;;;;5032822;28;20017;-85
2023/10/06 05:05:44;;;;;;;13.63;10.35;;;12.80;99.90;;;;;;5030734;28;20021;-85
2023/10/06 05:08:14;;;;;;;14.63;10.05;;;12.80;99.90;;;;;;5039979;28;20044;-87
2023/10/06 05:10:40;;;;;;;16.83;11.13;;;12.80;99.90;;;;;;5051017;28;20021;-86
2023/10/06 05:13:06;;;;;;;14.05;9.88;;;12.80;99.90;;;;;;5033106;28;20031;-85
2023/10/06 05:15:36;;;;;;;14.00;8.98;;;12.80;99.90;;;;;;5052763;28;20043;-86
2023/10/06 05:18:04;;;;;;;17.33;10.00;;;12.80;99.90;;;;;;5051248;28;20028;-84
2023/10/06 05:20:35;;;;;;;15.82;9.82;;;12.80;99.90;;;;;;5035895;28;20021;-85
2023/10/06 05:23:05;;;;;;;13.50;9.40;;;12.80;99.90;;;;;;5048467;28;20128;-85
2023/10/06 05:25:34;;;;;;;10.73;9.02;;;12.80;99.90;;;;;;5036987;28;20047;-85
2023/10/06 05:28:00;;;;;;;10.57;7.88;;;12.80;99.90;;;;;;5032248;28;20069;-85
2023/10/06 05:30:36;;;;;;;15.95;9.30;;;12.80;99.90;;;;;;5032916;28;20021;-85
2023/10/06 05:33:03;;;;;;;14.55;9.27;;;12.80;99.90;;;;;;5048966;28;20026;-85
2023/10/06 05:35:38;;;;;;;16.00;9.32;;;12.80;99.90;;;;;;5030228;28;20036;-86
2023/10/06 05:38:13;;;;;;;12.37;8.17;;;12.80;99.90;;;;;;5031104;28;20066;-85
2023/10/06 05:40:43;;;;;;;11.63;8.13;;;12.80;99.90;;;;;;5034283;28;20055;-84
2023/10/06 05:43:11;;;;;;;14.23;8.90;;;12.80;99.90;;;;;;5050493;28;20081;-86
2023/10/06 05:45:41;;;;;;;13.57;8.27;;;12.80;99.90;;;;;;5048582;28;20013;-85
2023/10/06 05:48:12;;;;;;;14.95;7.57;;;12.80;99.90;;;;;;5032460;28;20028;-85
2023/10/06 05:50:40;;;;;;;11.75;7.90;;;12.80;99.90;;;;;;5045846;28;20021;-86
2023/10/06 05:53:07;;;;;;;10.45;7.57;;;12.90;99.90;;;;;;5028072;28;20108;-86
2023/10/06 05:55:38;;;;;;;10.32;7.10;;;12.80;99.90;;;;;;5050343;28;20373;-85
2023/10/06 05:58:08;;;;;;;9.20;6.47;;;12.90;99.90;;;;;;5026878;28;20345;-85
2023/10/06 06:00:35;;;;;;;10.98;7.28;;;12.80;99.90;;;;;;5033387;28;20628;-86
2023/10/06 06:03:10;;;;;;;12.27;7.50;;;12.80;99.90;;;;;;5048469;28;20036;-86
2023/10/06 06:05:40;;;;;;;9.82;7.30;;;12.80;99.90;;;;;;5048326;28;20372;-84
2023/10/06 06:08:09;;;;;;;13.10;7.45;;;12.80;99.90;;;;;;5028802;28;20041;-86
2023/10/06 06:10:40;;;;;;;12.32;7.57;;;12.80;99.90;;;;;;5030763;28;20048;-84
2023/10/06 06:13:06;;;;;;;12.27;7.20;;;12.90;99.90;;;;;;5032083;28;20106;-84
2023/10/06 06:15:32;;;;;;;15.00;7.10;;;12.90;99.90;;;;;;5049738;28;20021;-85
2023/10/06 06:18:01;;;;;;;10.75;6.53;;;12.90;99.90;;;;;;5048747;28;20388;-85
2023/10/06 06:20:27;;;;;;;13.88;6.57;;;12.90;99.90;;;;;;5050431;28;20021;-85
2023/10/06 06:22:53;;;;;;;12.20;6.50;;;12.90;99.90;;;;;;5031988;28;20017;-84
2023/10/06 06:25:29;;;;;;;9.57;6.78;;;12.90;99.90;;;;;;5031539;28;20027;-83
2023/10/06 06:27:59;;;;;;;11.45;7.13;;;13.00;99.90;;;;;;5047695;28;20028;-85
2023/10/06 06:30:25;;;;;;;12.93;5.57;;;12.90;99.90;;;;;;5032871;28;20025;-85
2023/10/06 06:32:52;;;;;;;10.02;5.35;;;12.90;99.90;;;;;;5034639;28;20016;-86
2023/10/06 06:35:19;;;;;;;11.75;6.25;;;13.00;99.90;;;;;;5030716;28;20045;-85
2023/10/06 06:37:52;;;;;;;10.77;6.28;;;12.90;99.90;;;;;;5032230;28;20031;-84
2023/10/06 06:40:21;;;;;;;12.40;6.18;;;12.90;99.90;;;;;;5031800;28;20100;-84
2023/10/06 06:42:52;;;;;;;8.18;6.05;;;12.90;99.90;;;;;;5049772;28;20497;-84
2023/10/06 06:45:19;;;;;;;11.95;5.95;;;12.90;99.90;;;;;;5049507;28;20017;-85
2023/10/06 06:47:44;;;;;;;10.07;5.82;;;12.90;99.90;;;;;;5049221;28;20028;-84
2023/10/06 06:50:15;;;;;;;8.88;6.10;;;12.90;99.90;;;;;;5029487;28;20353;-84
2023/10/06 06:52:42;;;;;;;10.45;5.60;;;12.90;99.90;;;;;;5048819;28;20028;-84
2023/10/06 06:55:14;;;;;;;8.50;5.78;;;13.00;99.90;;;;;;5031571;28;20040;-84
2023/10/06 06:57:49;;;;;;;8.05;5.32;;;13.00;99.90;;;;;;5033544;28;20056;-85
2023/10/06 07:00:21;;;;;;;9.77;6.38;;;13.00;99.90;;;;;;5036240;28;20132;-85
2023/10/06 07:02:50;;;;;;;10.00;5.90;;;13.00;99.90;;;;;;5062475;28;20421;-85
2023/10/06 07:05:18;;;;;;;14.27;6.38;;;13.10;99.90;;;;;;5034680;28;20021;-85
2023/10/06 07:07:44;;;;;;;11.30;5.75;;;13.10;99.90;;;;;;5054683;28;20118;-85
2023/10/06 07:10:15;;;;;;;14.48;6.78;;;13.10;99.90;;;;;;5036830;28;20032;-84
2023/10/06 07:12:44;;;;;;;9.73;5.63;;;13.10;99.90;;;;;;5040880;28;20112;-85
2023/10/06 07:15:17;;;;;;;8.88;5.43;;;13.10;99.90;;;;;;5055255;28;20037;-84
2023/10/06 07:17:49;;;;;;;12.07;6.35;;;13.10;99.90;;;;;;5051187;28;20032;-84
2023/10/06 07:20:19;;;;;;;11.70;5.43;;;13.10;99.90;;;;;;5050423;28;20033;-84
2023/10/06 07:22:45;;;;;;;9.25;5.38;;;13.10;99.90;;;;;;5046553;28;20059;-84
2023/10/06 07:25:15;;;;;;;10.18;5.60;;;13.10;99.90;;;;;;5033540;28;20035;-84
2023/10/06 07:27:48;;;;;;;7.35;5.30;;;13.10;99.90;;;;;;5031284;28;20451;-84
2023/10/06 07:30:14;;;;;;;11.32;6.40;;;13.10;99.90;;;;;;5051877;28;20079;-85
2023/10/06 07:32:42;;;;;;;9.25;5.75;;;13.10;99.90;;;;;;5051627;28;20481;-86
2023/10/06 07:35:12;;;;;;;7.15;5.38;;;13.10;99.90;;;;;;5033365;28;20496;-84
2023/10/06 07:37:42;;;;;;;12.35;5.78;;;13.10;99.90;;;;;;5037609;28;20025;-85
2023/10/06 07:40:12;;;;;;;10.65;5.60;;;13.00;99.90;;;;;;5032973;28;20525;-86
2023/10/06 07:42:45;;;;;;;13.82;5.70;;;13.10;99.90;;;;;;5028125;28;20366;-84
2023/10/06 07:45:12;;;;;;;12.60;5.63;;;13.10;99.90;;;;;;5049950;28;20028;-84
2023/10/06 07:47:39;;;;;;;8.45;5.72;;;13.00;99.90;;;;;;5047508;28;20016;-84
2023/10/06 07:50:07;;;;;;;7.75;5.57;;;13.10;99.90;;;;;;5023948;28;20143;-84
2023/10/06 07:52:33;;;;;;;9.40;5.80;;;13.10;99.90;;;;;;5033054;28;20036;-85
2023/10/06 07:55:00;;;;;;;10.07;4.97;;;13.10;99.90;;;;;;5045855;28;20030;-83
2023/10/06 07:57:31;;;;;;;12.48;6.03;;;13.10;99.90;;;;;;5049964;28;20021;-84
2023/10/06 07:59:59;;;;;;;12.75;6.32;;;13.20;99.90;;;;;;5028961;28;20031;-85
2023/10/06 08:02:29;;;;;;;8.85;5.32;;;13.10;99.90;;;;;;5024689;28;20117;-84
2023/10/06 08:04:55;;;;;;;6.85;5.38;;;13.20;99.90;;;;;;5029594;28;20028;-84
2023/10/06 08:07:26;;;;;;;8.07;5.68;;;13.20;99.90;;;;;;5028426;28;20033;-85
2023/10/06 08:09:53;;;;;;;11.25;5.72;;;13.20;99.90;;;;;;5029534;28;20025;-85
2023/10/06 08:12:18;;;;;;;9.68;5.78;;;13.20;99.90;;;;;;5027267;28;20670;-85
2023/10/06 08:14:44;;;;;;;9.43;6.13;;;13.30;99.90;;;;;;5030435;28;20048;-86
2023/10/06 08:17:09;;;;;;;9.32;5.47;;;13.30;99.90;;;;;;5034726;28;20013;-88
2023/10/06 08:19:35;;;;;;;11.77;5.28;;;13.30;99.90;;;;;;5030632;28;20028;-85
2023/10/06 08:22:00;;;;;;;11.90;5.18;;;13.30;99.90;;;;;;5032129;28;20025;-84
2023/10/06 08:24:26;;;;;;;10.00;5.55;;;13.30;99.90;;;;;;5047530;28;20028;-83
2023/10/06 08:26:52;;;;;;;12.52;5.88;;;13.30;99.90;;;;;;5033669;28;20021;-83
2023/10/06 08:29:17;;;;;;;11.15;5.45;;;13.30;99.90;;;;;;5049995;28;20029;-84
2023/10/06 08:31:43;;;;;;;10.13;5.88;;;13.40;99.90;;;;;;5052040;28;20020;-83
2023/10/06 08:34:11;;;;;;;8.75;5.47;;;13.40;99.90;;;;;;5031200;28;20032;-86
2023/10/06 08:36:41;;;;;;;7.30;5.50;;;13.40;99.90;;;;;;5048776;28;20104;-86
2023/10/06 08:39:08;;;;;;;11.02;6.38;;;13.40;99.90;;;;;;5031764;28;20043;-84
2023/10/06 08:41:37;;;;;;;8.27;5.68;;;13.40;99.90;;;;;;5032483;28;20021;-85
2023/10/06 08:44:03;;;;;;;16.27;6.07;;;13.40;99.90;;;;;;5032651;28;20036;-83
2023/10/06 08:46:31;;;;;;;8.82;5.55;;;13.40;99.90;;;;;;5050269;28;20021;-84
2023/10/06 08:48:58;;;;;;;11.32;5.47;;;13.40;99.90;;;;;;5031639;28;20439;-82
2023/10/06 08:51:26;;;;;;;6.93;4.90;;;13.40;99.90;;;;;;5031665;28;20428;-84
2023/10/06 08:53:55;;;;;;;7.72;5.35;;;13.40;99.90;;;;;;5033328;28;20088;-85
2023/10/06 08:56:21;;;;;;;6.47;4.85;;;13.40;99.90;;;;;;5033258;28;20029;-84
2023/10/06 08:58:47;;;;;;;8.00;5.60;;;13.50;99.90;;;;;;5032144;28;20511;-82
2023/10/06 09:01:13;;;;;;;8.98;5.78;;;13.50;99.90;;;;;;5031652;28;20017;-84
2023/10/06 09:03:39;;;;;;;11.45;5.93;;;13.50;99.90;;;;;;5030056;28;20132;-82
2023/10/06 09:06:11;;;;;;;7.88;5.72;;;13.50;99.90;;;;;;5031509;28;20055;-84
2023/10/06 09:08:43;;;;;;;8.93;5.45;;;13.50;99.90;;;;;;5033061;28;20093;-83
2023/10/06 09:11:10;;;;;;;8.73;5.80;;;13.50;99.90;;;;;;5049053;28;20025;-84
2023/10/06 09:13:36;;;;;;;7.80;4.90;;;13.50;99.90;;;;;;5037146;28;20021;-84
2023/10/06 09:16:10;;;;;;;9.85;5.40;;;13.50;99.90;;;;;;5032116;28;20090;-84
2023/10/06 09:18:38;;;;;;;10.20;4.78;;;13.60;99.90;;;;;;5029642;28;20036;-84
2023/10/06 09:21:10;;;;;;;8.80;5.25;;;13.60;99.90;;;;;;5033528;28;20040;-84
2023/10/06 09:23:39;;;;;;;12.23;5.60;;;13.60;99.90;;;;;;5050648;28;20024;-84
2023/10/06 09:26:07;;;;;;;11.18;5.72;;;13.60;99.90;;;;;;5031814;28;20017;-84
2023/10/06 09:28:33;;;;;;;13.90;6.63;;;13.50;99.90;;;;;;5032498;28;20381;-85
2023/10/06 09:31:01;;;;;;;12.68;5.72;;;13.60;99.90;;;;;;5049482;28;20025;-85
2023/10/06 09:33:35;;;;;;;9.15;6.03;;;13.50;99.90;;;;;;5049439;28;20032;-85
2023/10/06 09:36:11;;;;;;;6.75;4.75;;;13.60;99.90;;;;;;5033332;28;20029;-86
2023/10/06 09:38:38;;;;;;;11.23;5.38;;;13.50;99.90;;;;;;5033081;28;20021;-85
2023/10/06 09:41:06;;;;;;;13.80;5.90;;;13.60;99.90;;;;;;5050364;28;20122;-85
2023/10/06 09:43:35;;;;;;;7.70;5.18;;;13.60;99.90;;;;;;5032880;28;20417;-85
2023/10/06 09:46:09;;;;;;;10.50;5.50;;;13.60;99.90;;;;;;5027606;28;20021;-84
2023/10/06 09:48:42;;;;;;;7.97;4.93;;;13.60;99.90;;;;;;5050600;28;20107;-86
2023/10/06 09:51:09;;;;;;;8.60;4.90;;;13.60;99.90;;;;;;5032754;28;20025;-84
2023/10/06 09:53:38;;;;;;;6.32;5.03;;;13.70;99.90;;;;;;5051227;28;20035;-85
2023/10/06 09:56:12;;;;;;;10.75;5.68;;;13.70;99.90;;;;;;5032578;28;20028;-85
2023/10/06 09:58:44;;;;;;;6.15;4.88;;;13.70;99.90;;;;;;5026637;28;20918;-84
2023/10/06 10:01:13;;;;;;;7.50;5.10;;;13.70;99.90;;;;;;5031226;28;20036;-84
2023/10/06 10:03:40;;;;;;;7.43;5.05;;;13.70;99.90;;;;;;5029608;28;20135;-86
2023/10/06 10:06:06;;;;;;;8.82;5.25;;;13.70;99.90;;;;;;5030693;28;20017;-83
2023/10/06 10:08:33;;;;;;;6.63;4.28;;;13.70;99.90;;;;;;5035705;28;20060;-84
2023/10/06 10:11:13;;;;;;;9.32;4.93;;;13.80;99.90;;;;;;5046304;28;20029;-86
2023/10/06 10:14:06;;;;;;;9.85;4.97;;;13.70;99.90;;;;;;5047248;28;20021;-88
2023/10/06 10:16:46;;;;;;;7.88;4.82;;;13.80;99.90;;;;;;5030055;28;20033;-88
2023/10/06 10:19:16;;;;;;;7.15;4.70;;;13.80;99.90;;;;;;5026218;28;20025;-89
2023/10/06 10:21:47;;;;;;;7.90;4.63;;;13.80;99.90;;;;;;5030225;28;20052;-89
2023/10/06 10:24:19;;;;;;;7.05;5.13;;;13.80;99.90;;;;;;5026718;28;20025;-90
2023/10/06 10:26:47;;;;;;;8.18;4.75;;;13.70;99.90;;;;;;5046848;28;20043;-87
2023/10/06 10:29:13;;;;;;;8.20;5.10;;;13.70;99.90;;;;;;5028756;28;20510;-89
2023/10/06 10:31:41;;;;;;;8.75;5.00;;;13.70;99.90;;;;;;5045361;28;20025;-89
2023/10/06 10:34:20;;;;;;;6.45;5.20;;;13.70;99.90;;;;;;5028789;28;20032;-89
2023/10/06 10:37:05;;;;;;;9.00;5.38;;;13.70;99.90;;;;;;5028391;28;20017;-89
2023/10/06 10:39:51;;;;;;;12.30;5.80;;;13.70;99.90;;;;;;5025436;28;20028;-88
2023/10/06 10:42:43;;;;;;;8.35;5.20;;;13.70;99.90;;;;;;5027505;28;20404;-87
2023/10/06 10:45:31;;;;;;;6.65;4.80;;;13.70;99.90;;;;;;5034586;28;20029;-88
2023/10/06 10:47:58;;;;;;;6.38;4.70;;;13.70;99.90;;;;;;5030571;28;20233;-88
2023/10/06 10:50:52;;;;;;;6.93;5.18;;;13.70;99.90;;;;;;5028795;28;20025;-87
2023/10/06 10:53:20;;;;;;;6.90;5.72;;;13.70;99.90;;;;;;5026433;28;20017;-88
2023/10/06 10:55:47;;;;;;;9.98;5.88;;;13.60;99.90;;;;;;5029314;28;20024;-87
2023/10/06 10:58:42;;;;;;;10.80;5.93;;;13.70;99.90;;;;;;5030996;28;20025;-87
2023/10/06 11:01:31;;;;;;;7.60;5.63;;;13.60;99.90;;;;;;5026570;28;20166;-88
2023/10/06 11:04:18;;;;;;;7.32;6.05;;;13.60;99.90;;;;;;5047870;28;20029;-87
2023/10/06 11:06:45;;;;;;;10.15;6.55;;;13.70;99.90;;;;;;5030053;28;20025;-86
2023/10/06 11:09:26;;;;;;;7.53;5.85;;;13.60;99.90;;;;;;5027808;28;20619;-87
2023/10/06 11:11:55;;;;;;;11.18;6.50;;;13.60;99.90;;;;;;5029559;28;20025;-88
2023/10/06 11:14:23;;;;;;;11.10;7.15;;;13.60;99.90;;;;;;5035430;28;20021;-87
2023/10/06 11:16:49;;;;;;;8.13;6.38;;;13.60;99.90;;;;;;5027966;28;20420;-87
2023/10/06 11:19:16;;;;;;;9.38;6.50;;;13.70;99.90;;;;;;5029783;28;20048;-86
2023/10/06 11:21:44;;;;;;;14.18;7.28;;;13.70;99.90;;;;;;5030174;28;20045;-87
2023/10/06 11:24:10;;;;;;;10.65;5.97;;;13.80;99.90;;;;;;5031029;28;20048;-87
2023/10/06 11:26:36;;;;;;;10.02;7.13;;;13.80;99.90;;;;;;5031353;28;20029;-87
2023/10/06 11:29:03;;;;;;;11.60;7.28;;;13.80;99.90;;;;;;5028792;28;20431;-86
2023/10/06 11:31:29;;;;;;;7.80;5.88;;;13.80;99.90;;;;;;5029303;28;20101;-87
2023/10/06 11:33:55;;;;;;;10.50;6.15;;;13.80;99.90;;;;;;5045652;28;20075;-86
2023/10/06 11:36:22;;;;;;;11.40;6.75;;;13.80;99.90;;;;;;5030419;28;20052;-87
2023/10/06 11:38:48;;;;;;;6.93;5.05;;;13.80;99.90;;;;;;5027760;28;20108;-87
2023/10/06 11:41:24;;;;;;;7.13;5.70;;;13.90;99.90;;;;;;5027452;28;20163;-87
2023/10/06 11:43:58;;;;;;;8.15;5.35;;;13.90;99.90;;;;;;5045238;28;20546;-86
2023/10/06 11:46:23;;;;;;;10.23;6.25;;;13.90;99.90;;;;;;5027364;28;20033;-86
2023/10/06 11:48:52;;;;;;;10.55;5.97;;;13.90;99.90;;;;;;5029097;28;20024;-87
2023/10/06 11:51:18;;;;;;;6.20;5.32;;;13.90;99.90;;;;;;5034180;28;20040;-87
2023/10/06 11:53:44;;;;;;;6.57;5.72;;;13.90;99.90;;;;;;5032975;28;20147;-85
2023/10/06 11:56:12;;;;;;;9.93;6.18;;;14.00;99.90;;;;;;5052117;28;20025;-86
2023/10/06 11:58:40;;;;;;;11.18;5.75;;;14.00;99.90;;;;;;5029648;28;20055;-86
2023/10/06 12:01:06;;;;;;;11.70;5.75;;;14.00;99.90;;;;;;5033196;28;20025;-87
2023/10/06 12:03:42;;;;;;;8.55;6.15;;;14.00;99.90;;;;;;5051042;28;20017;-85
2023/10/06 12:06:11;;;;;;;10.15;6.72;;;14.00;99.90;;;;;;5051796;28;20025;-85
2023/10/06 12:08:44;;;;;;;6.85;6.15;;;14.00;99.90;;;;;;5033283;28;20040;-85
2023/10/06 12:11:12;;;;;;;11.05;7.30;;;14.00;99.90;;;;;;5033566;28;20052;-86
2023/10/06 12:13:38;;;;;;;8.32;6.72;;;14.00;99.90;;;;;;5032878;28;20037;-86
2023/10/06 12:16:11;;;;;;;12.05;8.73;;;14.00;99.90;;;;;;5050670;28;20024;-87
2023/10/06 12:18:37;;;;;;;12.43;7.68;;;14.10;99.90;;;;;;5033455;28;20711;-85
2023/10/06 12:21:02;;;;;;;8.93;7.70;;;14.10;99.90;;;;;;5032442;28;20025;-86
2023/10/06 12:23:29;;;;;;;11.40;8.70;;;14.10;99.90;;;;;;5051595;28;20013;-86
2023/10/06 12:25:55;;;;;;;13.50;7.57;;;14.10;99.90;;;;;;5031935;28;20017;-85
2023/10/06 12:28:20;;;;;;;11.85;7.82;;;14.10;99.90;;;;;;5033521;28;20021;-85
2023/10/06 12:30:46;;;;;;;9.75;7.88;;;14.10;99.90;;;;;;5032752;28;20018;-87
2023/10/06 12:33:11;;;;;;;13.50;8.45;;;14.10;99.90;;;;;;5032803;28;20025;-85
2023/10/06 12:35:39;;;;;;;9.48;7.05;;;14.10;99.90;;;;;;5033270;28;20040;-85
2023/10/06 12:38:06;;;;;;;12.95;6.80;;;14.20;99.90;;;;;;5030961;28;20017;-87
2023/10/06 12:40:32;;;;;;;11.50;7.60;;;14.20;99.90;;;;;;5050171;28;20025;-85
2023/10/06 12:42:57;;;;;;;10.10;6.90;;;14.20;99.90;;;;;;5034746;28;20140;-85
2023/10/06 12:45:23;;;;;;;10.50;7.55;;;14.20;99.90;;;;;;5050766;28;20021;-84
2023/10/06 12:47:49;;;;;;;11.30;7.75;;;14.30;99.90;;;;;;5038807;28;20575;-85
2023/10/06 12:50:17;;;;;;;11.57;7.57;;;14.30;99.90;;;;;;5036096;28;20120;-85
2023/10/06 12:52:52;;;;;;;11.32;7.80;;;14.30;99.90;;;;;;5050648;28;20315;-86
2023/10/06 12:55:22;;;;;;;10.18;6.55;;;14.30;99.90;;;;;;5030979;28;20056;-85
2023/10/06 12:57:52;;;;;;;8.85;7.18;;;14.40;99.90;;;;;;5032259;28;20029;-85
2023/10/06 13:00:19;;;;;;;10.63;7.03;;;14.40;99.90;;;;;;5033126;28;20024;-85
2023/10/06 13:02:47;;;;;;;12.10;7.30;;;14.40;99.90;;;;;;5047507;28;20024;-86